Time;durP1;ratioP1;P1;durP2;ratioP2;P2;SDS_P1;SDS_P2;PMS_P1;PMS_P2;Temp;Humidity;BMP_temperature;BMP_pressure;BME280_temperature;BME280_humidity;BME280_pressure;Samples;Min_cycle;Max_cycle;Signal;HPM_P1;HPM_P2
2021/09/16 00:02:10;;;;;;;6.93;6.30;;;19.90;99.90;;;;;;5081561;28;20229;-78
2021/09/16 00:04:37;;;;;;;7.93;7.22;;;20.00;99.90;;;;;;5075836;28;20217;-75
2021/09/16 00:07:05;;;;;;;7.30;6.60;;;20.00;99.90;;;;;;5079926;28;20294;-75
2021/09/16 00:09:32;;;;;;;7.10;6.40;;;20.00;99.90;;;;;;5079977;28;20229;-76
2021/09/16 00:11:59;;;;;;;7.45;6.75;;;20.10;99.90;;;;;;5080214;28;20728;-76
2021/09/16 00:14:26;;;;;;;7.68;6.97;;;20.10;99.90;;;;;;5078365;28;20220;-76
2021/09/16 00:16:55;;;;;;;7.50;6.90;;;20.10;99.90;;;;;;5077000;28;20263;-76
2021/09/16 00:19:22;;;;;;;7.68;6.88;;;20.10;99.90;;;;;;5080666;28;20266;-76
2021/09/16 00:21:49;;;;;;;7.93;7.10;;;20.10;99.90;;;;;;5075087;28;20217;-76
2021/09/16 00:24:16;;;;;;;8.32;7.63;;;20.10;99.90;;;;;;5080217;28;20656;-76
2021/09/16 00:26:43;;;;;;;8.10;7.32;;;20.10;99.90;;;;;;5076480;28;20268;-76
2021/09/16 00:29:11;;;;;;;8.27;7.55;;;20.00;99.90;;;;;;5080038;28;20226;-76
2021/09/16 00:31:38;;;;;;;7.15;6.53;;;20.00;99.90;;;;;;5078351;28;20263;-76
2021/09/16 00:34:07;;;;;;;7.18;6.47;;;20.00;99.90;;;;;;5076347;28;21473;-76
2021/09/16 00:36:34;;;;;;;9.48;8.43;;;20.00;99.90;;;;;;5080625;28;20266;-75
2021/09/16 00:39:01;;;;;;;8.25;6.80;;;20.00;99.90;;;;;;5080363;28;20232;-76
2021/09/16 00:41:29;;;;;;;7.72;7.03;;;20.00;99.90;;;;;;5077024;28;20221;-77
2021/09/16 00:43:56;;;;;;;7.90;7.10;;;19.90;99.90;;;;;;5071785;28;20217;-75
2021/09/16 00:46:23;;;;;;;8.88;6.10;;;20.00;99.90;;;;;;5079287;28;20815;-76
2021/09/16 00:48:50;;;;;;;6.70;6.07;;;19.90;99.90;;;;;;5075267;28;20221;-76
2021/09/16 00:51:19;;;;;;;6.57;5.97;;;20.00;99.90;;;;;;5087634;28;20232;-76
2021/09/16 00:53:47;;;;;;;7.75;6.82;;;20.00;99.90;;;;;;5079570;28;20220;-75
2021/09/16 00:56:15;;;;;;;7.75;7.05;;;20.00;99.90;;;;;;5073468;28;20239;-76
2021/09/16 00:58:42;;;;;;;7.18;6.47;;;20.00;99.90;;;;;;5077215;28;20272;-76
2021/09/16 01:01:09;;;;;;;7.25;6.65;;;20.00;99.90;;;;;;5077172;28;20802;-76
2021/09/16 01:03:36;;;;;;;7.15;6.45;;;20.00;99.90;;;;;;5049726;28;20634;-76
2021/09/16 01:06:06;;;;;;;7.20;6.22;;;20.00;99.90;;;;;;5078135;28;20230;-76
2021/09/16 01:08:35;;;;;;;6.85;6.25;;;20.00;99.90;;;;;;5075858;28;20573;-75
2021/09/16 01:11:02;;;;;;;6.53;5.93;;;20.00;99.90;;;;;;5077899;28;20232;-76
2021/09/16 01:13:29;;;;;;;7.90;7.20;;;20.00;99.90;;;;;;5078950;28;20346;-76
2021/09/16 01:15:58;;;;;;;7.32;6.72;;;19.90;99.90;;;;;;5079103;28;20221;-75
2021/09/16 01:18:25;;;;;;;7.10;6.50;;;19.90;99.90;;;;;;5077432;28;20733;-76
2021/09/16 01:20:54;;;;;;;7.10;6.50;;;19.80;99.90;;;;;;5078038;28;20248;-75
2021/09/16 01:23:22;;;;;;;7.10;5.78;;;19.80;99.90;;;;;;5079650;28;20225;-76
2021/09/16 01:25:49;;;;;;;6.53;5.93;;;19.80;99.90;;;;;;5081429;28;20290;-77
2021/09/16 01:28:17;;;;;;;6.40;5.47;;;19.80;99.90;;;;;;5078678;28;20660;-77
2021/09/16 01:30:45;;;;;;;6.68;6.05;;;19.90;99.90;;;;;;5076939;28;20274;-77
2021/09/16 01:33:13;;;;;;;7.30;6.60;;;19.90;99.90;;;;;;5072358;28;20225;-77
2021/09/16 01:35:40;;;;;;;8.18;6.63;;;19.90;99.90;;;;;;5080129;28;20237;-77
2021/09/16 01:38:07;;;;;;;7.60;6.85;;;19.90;99.90;;;;;;5040916;28;20225;-76
2021/09/16 01:40:36;;;;;;;8.60;6.95;;;19.80;99.90;;;;;;5071549;28;20801;-77
2021/09/16 01:43:03;;;;;;;6.50;5.70;;;19.80;99.90;;;;;;5076423;28;20224;-76
2021/09/16 01:45:30;;;;;;;6.45;5.85;;;19.80;99.90;;;;;;5080498;28;20289;-76
2021/09/16 01:47:57;;;;;;;7.10;6.25;;;19.80;99.90;;;;;;5075245;28;20653;-76
2021/09/16 01:50:26;;;;;;;6.45;5.95;;;19.80;99.90;;;;;;5074676;28;20221;-76
2021/09/16 01:52:53;;;;;;;7.18;5.88;;;19.70;99.90;;;;;;5071370;28;20693;-77
2021/09/16 01:55:21;;;;;;;6.10;5.50;;;19.70;99.90;;;;;;5072668;28;20295;-76
2021/09/16 01:57:49;;;;;;;6.45;5.78;;;19.70;99.90;;;;;;5073573;28;20221;-77
2021/09/16 02:00:17;;;;;;;6.60;5.93;;;19.70;99.90;;;;;;5077871;28;20251;-76
2021/09/16 02:02:44;;;;;;;7.97;5.82;;;19.70;99.90;;;;;;5073150;28;20287;-76
2021/09/16 02:05:11;;;;;;;6.35;5.75;;;19.70;99.90;;;;;;5078044;28;20237;-77
2021/09/16 02:07:39;;;;;;;7.30;6.18;;;19.70;99.90;;;;;;5076975;28;20225;-76
2021/09/16 02:10:07;;;;;;;6.47;5.82;;;19.70;99.90;;;;;;5077170;28;20236;-76
2021/09/16 02:12:35;;;;;;;8.40;5.85;;;19.70;99.90;;;;;;5076175;28;20230;-76
2021/09/16 02:15:04;;;;;;;6.35;5.68;;;19.70;99.90;;;;;;5075228;28;20287;-76
2021/09/16 02:17:31;;;;;;;7.68;5.68;;;19.70;99.90;;;;;;5075411;28;20252;-76
2021/09/16 02:19:58;;;;;;;10.00;7.47;;;19.60;99.90;;;;;;5075218;28;20218;-77
2021/09/16 02:22:25;;;;;;;9.85;8.00;;;19.60;99.90;;;;;;5074349;28;20715;-76
2021/09/16 02:24:52;;;;;;;9.30;8.45;;;19.60;99.90;;;;;;5074050;28;20218;-76
2021/09/16 02:27:19;;;;;;;9.30;8.00;;;19.50;99.90;;;;;;5071252;28;20296;-75
2021/09/16 02:29:46;;;;;;;8.60;7.78;;;19.50;99.90;;;;;;5075994;28;20272;-77
2021/09/16 02:32:15;;;;;;;8.43;7.53;;;19.50;99.90;;;;;;5082083;28;20225;-76
2021/09/16 02:34:42;;;;;;;7.75;6.75;;;19.50;99.90;;;;;;5080049;28;20275;-77
2021/09/16 02:37:09;;;;;;;6.72;6.13;;;19.50;99.90;;;;;;5085052;28;20206;-78
2021/09/16 02:39:36;;;;;;;7.43;6.18;;;19.50;99.90;;;;;;5081708;28;20226;-76
2021/09/16 02:42:03;;;;;;;7.15;6.45;;;19.50;99.90;;;;;;5081763;28;21037;-76
2021/09/16 02:44:30;;;;;;;8.23;7.38;;;19.60;99.90;;;;;;5080537;28;20217;-76
2021/09/16 02:46:57;;;;;;;7.53;6.57;;;19.50;99.90;;;;;;5080527;28;20842;-76
2021/09/16 02:49:25;;;;;;;7.25;6.50;;;19.50;99.90;;;;;;5077149;28;20266;-77
2021/09/16 02:51:52;;;;;;;7.50;6.80;;;19.50;99.90;;;;;;5079877;28;20746;-75
2021/09/16 02:54:19;;;;;;;7.38;6.68;;;19.40;99.90;;;;;;5080674;28;20225;-76
2021/09/16 02:56:47;;;;;;;7.45;6.72;;;19.50;99.90;;;;;;5080233;28;20221;-77
2021/09/16 02:59:14;;;;;;;7.03;6.43;;;19.40;99.90;;;;;;5076489;28;20240;-77
2021/09/16 03:01:41;;;;;;;7.45;6.72;;;19.50;99.90;;;;;;5077321;28;20226;-77
2021/09/16 03:04:08;;;;;;;6.18;5.60;;;19.40;99.90;;;;;;5080950;28;20280;-77
2021/09/16 03:06:37;;;;;;;6.60;6.00;;;19.40;99.90;;;;;;5081331;28;20221;-77
2021/09/16 03:09:04;;;;;;;6.65;5.95;;;19.40;99.90;;;;;;5076531;28;20283;-77
2021/09/16 03:11:31;;;;;;;6.60;5.97;;;19.40;99.90;;;;;;5082401;28;20213;-76
2021/09/16 03:13:58;;;;;;;7.03;6.32;;;19.40;99.90;;;;;;5075268;28;20760;-76
2021/09/16 03:16:25;;;;;;;6.10;5.50;;;19.50;99.90;;;;;;5078133;28;20263;-77
2021/09/16 03:18:52;;;;;;;6.70;5.90;;;19.50;99.90;;;;;;5076976;28;20607;-77
2021/09/16 03:21:19;;;;;;;7.78;7.05;;;19.50;99.90;;;;;;5075608;28;20236;-77
2021/09/16 03:23:48;;;;;;;7.53;6.82;;;19.50;99.90;;;;;;5077623;28;20275;-76
2021/09/16 03:26:15;;;;;;;6.55;5.95;;;19.50;99.90;;;;;;5073939;28;20274;-76
2021/09/16 03:28:42;;;;;;;7.85;7.05;;;19.40;99.90;;;;;;5077987;28;20274;-76
2021/09/16 03:31:09;;;;;;;6.85;6.20;;;19.50;99.90;;;;;;5091602;28;20205;-75
2021/09/16 03:33:37;;;;;;;7.60;6.80;;;19.40;99.90;;;;;;5077070;28;20218;-77
2021/09/16 03:36:05;;;;;;;8.27;6.57;;;19.40;99.90;;;;;;5076071;28;20529;-77
2021/09/16 03:38:32;;;;;;;7.60;6.90;;;19.40;99.90;;;;;;5080554;28;20738;-76
2021/09/16 03:41:01;;;;;;;7.35;6.65;;;19.40;99.90;;;;;;5075193;28;20633;-76
2021/09/16 03:43:28;;;;;;;8.50;6.35;;;19.40;99.90;;;;;;5075492;28;20276;-76
2021/09/16 03:45:56;;;;;;;7.03;6.32;;;19.40;99.90;;;;;;5078360;28;20294;-76
2021/09/16 03:48:23;;;;;;;8.15;7.15;;;19.50;99.90;;;;;;5076680;28;20221;-76
2021/09/16 03:50:50;;;;;;;7.50;6.75;;;19.50;99.90;;;;;;5077789;28;20714;-76
2021/09/16 03:53:18;;;;;;;7.13;6.40;;;19.40;99.90;;;;;;5078121;28;20213;-76
2021/09/16 03:55:45;;;;;;;6.72;6.03;;;19.40;99.90;;;;;;5073720;28;20229;-76
2021/09/16 03:58:14;;;;;;;8.02;6.55;;;19.40;99.90;;;;;;5073163;28;20669;-76
2021/09/16 04:00:41;;;;;;;7.15;6.55;;;19.40;99.90;;;;;;5077858;28;20225;-76
2021/09/16 04:03:08;;;;;;;6.30;5.80;;;19.40;99.90;;;;;;5077259;28;20290;-76
2021/09/16 04:05:36;;;;;;;9.00;7.70;;;19.40;99.90;;;;;;5077015;28;20228;-75
2021/09/16 04:08:03;;;;;;;7.25;6.55;;;19.40;99.90;;;;;;5076608;28;20234;-76
2021/09/16 04:10:30;;;;;;;7.85;6.40;;;19.40;99.90;;;;;;5079419;28;20295;-76
2021/09/16 04:12:57;;;;;;;7.47;6.85;;;19.40;99.90;;;;;;5075982;28;20214;-75
2021/09/16 04:15:26;;;;;;;7.90;7.20;;;19.40;99.90;;;;;;5072407;28;20291;-77
2021/09/16 04:17:53;;;;;;;7.55;6.53;;;19.40;99.90;;;;;;5074541;28;20271;-76
2021/09/16 04:20:20;;;;;;;7.75;6.95;;;19.40;99.90;;;;;;5077588;28;20568;-76
2021/09/16 04:22:47;;;;;;;7.22;6.38;;;19.40;99.90;;;;;;5074050;28;20639;-78
2021/09/16 04:25:14;;;;;;;6.70;6.10;;;19.40;99.90;;;;;;5090339;28;20726;-76
2021/09/16 04:27:41;;;;;;;7.70;6.38;;;19.40;99.90;;;;;;5075757;28;20287;-77
2021/09/16 04:30:10;;;;;;;6.18;5.57;;;19.40;99.90;;;;;;5071592;28;20269;-77
2021/09/16 04:32:39;;;;;;;7.15;6.55;;;19.50;99.90;;;;;;5052847;28;20209;-76
2021/09/16 04:35:07;;;;;;;7.13;6.50;;;19.50;99.90;;;;;;5073454;28;20306;-76
2021/09/16 04:37:34;;;;;;;7.47;6.22;;;19.50;99.90;;;;;;5072475;28;20220;-77
2021/09/16 04:40:01;;;;;;;7.18;6.20;;;19.50;99.90;;;;;;5079078;28;20213;-78
2021/09/16 04:42:28;;;;;;;6.40;5.80;;;19.50;99.90;;;;;;5075819;28;20230;-76
2021/09/16 04:44:56;;;;;;;6.97;6.38;;;19.50;99.90;;;;;;5076367;28;20279;-75
2021/09/16 04:47:23;;;;;;;8.98;7.82;;;19.50;99.90;;;;;;5075839;28;20233;-76
2021/09/16 04:49:51;;;;;;;8.43;7.40;;;19.50;99.90;;;;;;5079902;28;20699;-76
2021/09/16 04:52:19;;;;;;;8.13;6.70;;;19.40;99.90;;;;;;5076772;28;20275;-76
2021/09/16 04:54:46;;;;;;;8.18;7.38;;;19.40;99.90;;;;;;5079277;28;20225;-76
2021/09/16 04:57:13;;;;;;;8.38;7.47;;;19.40;99.90;;;;;;5077901;28;20233;-75
2021/09/16 04:59:40;;;;;;;8.93;6.97;;;19.50;99.90;;;;;;5076065;28;20804;-77
2021/09/16 05:02:07;;;;;;;8.00;6.70;;;19.50;99.90;;;;;;5078420;28;20229;-77
2021/09/16 05:04:34;;;;;;;7.47;6.70;;;19.50;99.90;;;;;;5073525;28;20743;-76
2021/09/16 05:07:02;;;;;;;6.88;6.25;;;19.50;99.90;;;;;;5080471;28;20270;-76
2021/09/16 05:09:29;;;;;;;6.45;5.95;;;19.50;99.90;;;;;;5073522;28;20266;-76
2021/09/16 05:11:56;;;;;;;9.50;6.82;;;19.50;99.90;;;;;;5080181;28;20224;-77
2021/09/16 05:14:24;;;;;;;11.82;10.60;;;19.50;99.90;;;;;;5080232;28;20225;-76
2021/09/16 05:16:51;;;;;;;8.77;7.93;;;19.50;99.90;;;;;;5081809;28;20271;-78
2021/09/16 05:19:18;;;;;;;9.05;7.90;;;19.40;99.90;;;;;;5079223;28;20567;-76
2021/09/16 05:21:45;;;;;;;6.68;6.07;;;19.40;99.90;;;;;;5074069;28;20214;-76
2021/09/16 05:24:16;;;;;;;7.50;6.72;;;19.40;99.90;;;;;;5080001;28;20338;-77
2021/09/16 05:26:43;;;;;;;6.78;6.18;;;19.40;99.90;;;;;;5080475;28;20253;-77
2021/09/16 05:29:10;;;;;;;6.93;6.18;;;19.40;99.90;;;;;;5079426;28;20234;-77
2021/09/16 05:31:37;;;;;;;7.35;6.53;;;19.40;99.90;;;;;;5076072;28;20220;-77
2021/09/16 05:34:05;;;;;;;7.10;6.50;;;19.40;99.90;;;;;;5072949;28;21218;-77
2021/09/16 05:36:32;;;;;;;7.78;6.18;;;19.50;99.90;;;;;;5072206;28;20234;-75
2021/09/16 05:38:59;;;;;;;7.53;6.70;;;19.50;99.90;;;;;;5079030;28;20217;-76
2021/09/16 05:41:29;;;;;;;7.28;6.50;;;19.60;99.90;;;;;;5072594;28;20214;-76
2021/09/16 05:43:56;;;;;;;8.18;7.22;;;19.60;99.90;;;;;;5075880;28;20225;-76
2021/09/16 05:46:23;;;;;;;8.18;7.38;;;19.50;99.90;;;;;;5072334;28;20238;-77
2021/09/16 05:48:50;;;;;;;7.47;6.68;;;19.50;99.90;;;;;;5078673;28;20787;-77
2021/09/16 05:51:17;;;;;;;8.45;7.53;;;19.50;99.90;;;;;;5077401;28;20224;-77
2021/09/16 05:53:44;;;;;;;9.32;8.38;;;19.40;99.90;;;;;;5078082;28;20221;-76
2021/09/16 05:56:11;;;;;;;10.05;7.80;;;19.40;99.90;;;;;;5079487;28;20225;-77
2021/09/16 05:58:40;;;;;;;8.45;7.63;;;19.40;99.90;;;;;;5081388;28;20258;-77
2021/09/16 06:01:07;;;;;;;9.30;7.90;;;19.40;99.90;;;;;;5049318;28;20221;-77
2021/09/16 06:03:34;;;;;;;8.40;7.60;;;19.30;99.90;;;;;;5077424;28;20228;-76
2021/09/16 06:06:01;;;;;;;7.32;6.60;;;19.20;99.90;;;;;;5083792;28;20229;-75
2021/09/16 06:08:28;;;;;;;8.73;7.25;;;19.30;99.90;;;;;;5080300;28;20274;-75
2021/09/16 06:10:55;;;;;;;10.15;7.85;;;19.40;99.90;;;;;;5089154;28;20252;-76
2021/09/16 06:13:22;;;;;;;7.88;7.13;;;19.50;99.90;;;;;;5083668;28;20217;-75
2021/09/16 06:15:51;;;;;;;8.70;7.70;;;19.60;99.90;;;;;;5085837;28;20217;-76
2021/09/16 06:18:18;;;;;;;9.43;8.40;;;19.60;99.90;;;;;;5074968;28;20266;-76
2021/09/16 06:20:45;;;;;;;12.20;9.35;;;19.50;99.90;;;;;;5079733;28;20641;-75
2021/09/16 06:23:12;;;;;;;9.48;8.57;;;19.60;99.90;;;;;;5078997;28;20221;-76
2021/09/16 06:25:39;;;;;;;9.15;8.35;;;19.80;99.90;;;;;;5082015;28;20225;-76
2021/09/16 06:28:06;;;;;;;9.27;8.38;;;19.90;99.90;;;;;;5070564;28;20310;-76
2021/09/16 06:30:33;;;;;;;8.30;7.50;;;19.90;99.90;;;;;;5069776;28;21920;-75
2021/09/16 06:33:01;;;;;;;8.80;7.90;;;20.00;99.90;;;;;;5070104;28;20307;-76
2021/09/16 06:35:28;;;;;;;10.85;8.50;;;20.00;99.90;;;;;;5071838;28;20225;-75
2021/09/16 06:37:55;;;;;;;12.57;10.30;;;19.90;99.90;;;;;;5068986;28;20237;-75
2021/09/16 06:40:22;;;;;;;13.57;11.80;;;20.00;99.90;;;;;;5070897;28;20370;-75
2021/09/16 06:42:49;;;;;;;11.25;9.30;;;20.00;99.90;;;;;;5068463;28;20261;-76
2021/09/16 06:45:16;;;;;;;10.10;8.90;;;20.10;99.90;;;;;;5076718;28;20221;-76
2021/09/16 06:47:44;;;;;;;9.48;8.48;;;20.20;99.90;;;;;;5071274;28;20327;-74
2021/09/16 06:50:12;;;;;;;11.52;8.30;;;20.20;99.90;;;;;;5070188;28;20222;-75
2021/09/16 06:52:39;;;;;;;8.30;7.50;;;20.20;99.90;;;;;;5074501;28;20225;-75
2021/09/16 06:55:07;;;;;;;7.32;6.63;;;20.20;99.90;;;;;;5066935;28;20238;-75
2021/09/16 06:57:34;;;;;;;9.02;8.15;;;20.10;99.90;;;;;;5070304;28;20233;-75
2021/09/16 07:00:01;;;;;;;9.57;8.65;;;20.00;99.90;;;;;;5069171;28;20702;-75
2021/09/16 07:02:29;;;;;;;10.95;9.15;;;19.80;99.90;;;;;;5068845;28;20225;-75
2021/09/16 07:04:57;;;;;;;10.00;9.00;;;19.60;99.90;;;;;;5078066;28;20227;-77
2021/09/16 07:07:25;;;;;;;11.68;10.48;;;19.40;99.90;;;;;;5073673;28;20648;-74
2021/09/16 07:09:52;;;;;;;8.93;7.95;;;19.40;99.90;;;;;;5066211;28;21083;-75
2021/09/16 07:12:19;;;;;;;8.55;7.50;;;19.60;99.90;;;;;;5071123;28;20221;-76
2021/09/16 07:14:46;;;;;;;7.55;6.88;;;19.60;99.90;;;;;;5068481;28;20221;-76
2021/09/16 07:17:13;;;;;;;7.50;6.80;;;19.70;99.90;;;;;;5071371;28;20218;-76
2021/09/16 07:19:40;;;;;;;8.00;7.20;;;19.80;99.90;;;;;;5071226;28;20241;-76
2021/09/16 07:22:08;;;;;;;8.13;7.32;;;19.90;99.90;;;;;;5025664;28;20227;-74
2021/09/16 07:24:36;;;;;;;8.63;7.82;;;19.90;99.90;;;;;;5071611;28;20221;-75
2021/09/16 07:27:04;;;;;;;8.40;7.70;;;19.90;99.90;;;;;;5069140;28;20221;-75
2021/09/16 07:29:31;;;;;;;8.35;7.15;;;19.90;99.90;;;;;;5070112;28;20226;-75
2021/09/16 07:31:58;;;;;;;10.55;9.45;;;19.90;99.90;;;;;;5066218;28;21067;-75
2021/09/16 07:34:25;;;;;;;9.45;8.60;;;19.90;99.90;;;;;;5071451;28;20309;-75
2021/09/16 07:36:52;;;;;;;29.25;11.18;;;19.70;99.90;;;;;;5070490;28;20229;-76
2021/09/16 07:39:21;;;;;;;17.63;10.73;;;19.60;99.90;;;;;;5069692;28;20218;-74
2021/09/16 07:41:51;;;;;;;10.95;9.93;;;19.40;99.90;;;;;;5069543;28;20229;-76
2021/09/16 07:44:19;;;;;;;9.07;8.27;;;19.30;99.90;;;;;;5070678;28;20227;-75
2021/09/16 07:46:46;;;;;;;7.78;7.18;;;19.30;99.90;;;;;;5072759;28;20225;-75
2021/09/16 07:49:13;;;;;;;8.57;7.80;;;19.40;99.90;;;;;;5065674;28;20225;-76
2021/09/16 07:51:40;;;;;;;8.38;7.57;;;19.60;99.90;;;;;;5073094;28;20228;-74
2021/09/16 07:54:11;;;;;;;7.60;6.80;;;19.80;99.90;;;;;;5070608;28;20260;-74
2021/09/16 07:56:38;;;;;;;8.05;7.30;;;19.90;99.90;;;;;;5071352;28;20218;-76
2021/09/16 07:59:06;;;;;;;9.43;8.52;;;20.00;99.90;;;;;;5083820;28;20227;-75
2021/09/16 08:01:35;;;;;;;10.45;9.50;;;20.00;99.90;;;;;;5073123;28;20225;-75
2021/09/16 08:04:02;;;;;;;11.48;10.38;;;20.00;99.90;;;;;;5074283;28;20230;-75
2021/09/16 08:06:29;;;;;;;12.73;11.38;;;19.90;99.90;;;;;;5077574;28;20602;-76
2021/09/16 08:08:56;;;;;;;12.30;11.10;;;19.90;99.90;;;;;;5075819;28;20232;-75
2021/09/16 08:11:24;;;;;;;11.75;10.65;;;19.80;99.90;;;;;;5075410;28;20226;-76
2021/09/16 08:13:51;;;;;;;11.20;9.95;;;19.70;99.90;;;;;;5071318;28;20329;-75
2021/09/16 08:16:20;;;;;;;10.07;9.07;;;19.50;99.90;;;;;;5069483;28;20692;-75
2021/09/16 08:18:47;;;;;;;10.32;9.30;;;19.50;99.90;;;;;;5074433;28;20817;-76
2021/09/16 08:21:16;;;;;;;11.48;10.43;;;19.50;99.90;;;;;;5067061;28;20934;-76
2021/09/16 08:23:43;;;;;;;9.63;8.63;;;19.60;99.90;;;;;;5072401;28;20650;-76
2021/09/16 08:26:11;;;;;;;12.60;11.35;;;19.60;99.90;;;;;;5074705;28;20240;-75
2021/09/16 08:28:38;;;;;;;11.65;10.52;;;19.60;99.90;;;;;;5071652;28;20872;-75
2021/09/16 08:31:05;;;;;;;12.02;10.93;;;19.60;99.90;;;;;;5071810;28;20228;-75
2021/09/16 08:33:34;;;;;;;12.45;11.30;;;19.50;99.90;;;;;;5070668;28;20704;-76
2021/09/16 08:36:02;;;;;;;11.27;10.27;;;19.50;99.90;;;;;;5072090;28;20229;-74
2021/09/16 08:38:29;;;;;;;12.23;10.98;;;19.50;99.90;;;;;;5073157;28;20327;-76
2021/09/16 08:40:56;;;;;;;10.05;9.15;;;19.50;99.90;;;;;;5068066;28;20232;-75
2021/09/16 08:43:29;;;;;;;9.25;8.45;;;19.50;99.90;;;;;;5070135;28;20800;-75
2021/09/16 08:45:56;;;;;;;10.52;9.48;;;19.60;99.90;;;;;;5066202;28;20225;-76
2021/09/16 08:48:23;;;;;;;10.90;9.90;;;19.70;99.90;;;;;;5069405;28;20279;-76
2021/09/16 08:50:52;;;;;;;11.75;10.55;;;19.70;99.90;;;;;;5074371;28;20286;-76
2021/09/16 08:53:22;;;;;;;11.38;10.27;;;19.70;99.90;;;;;;5074049;28;20336;-76
2021/09/16 08:55:51;;;;;;;10.32;9.43;;;19.60;99.90;;;;;;5076888;28;20637;-75
2021/09/16 08:58:20;;;;;;;9.65;8.75;;;19.70;99.90;;;;;;5072011;28;21171;-76
2021/09/16 09:00:47;;;;;;;10.93;9.90;;;19.80;99.90;;;;;;5070619;28;20224;-77
2021/09/16 09:03:15;;;;;;;13.25;9.88;;;19.80;99.90;;;;;;5070731;28;20275;-76
2021/09/16 09:05:43;;;;;;;44.38;12.23;;;19.70;99.90;;;;;;5073337;28;20284;-76
2021/09/16 09:08:12;;;;;;;11.88;10.63;;;19.50;99.90;;;;;;5073759;28;20222;-77
2021/09/16 09:10:42;;;;;;;14.30;10.93;;;19.50;99.90;;;;;;5071970;28;20309;-76
2021/09/16 09:13:12;;;;;;;340.90;19.95;;;19.40;99.90;;;;;;5050233;28;20614;-75
2021/09/16 09:15:41;;;;;;;10.82;9.82;;;19.40;99.90;;;;;;5075081;28;20282;-76
2021/09/16 09:18:10;;;;;;;10.30;9.25;;;19.30;99.90;;;;;;5069844;28;20221;-76
2021/09/16 09:20:54;;;;;;;10.98;9.88;;;19.30;99.90;;;;;;5044036;28;20217;-77
2021/09/16 09:23:25;;;;;;;10.63;9.55;;;19.30;99.90;;;;;;5069488;28;20224;-77
2021/09/16 09:25:52;;;;;;;9.30;8.50;;;19.40;99.90;;;;;;5066967;28;20283;-76
2021/09/16 09:28:29;;;;;;;10.23;9.32;;;19.50;99.90;;;;;;5070424;28;20225;-76
2021/09/16 09:30:56;;;;;;;307.77;22.40;;;19.50;99.90;;;;;;5071036;28;20226;-76
2021/09/16 09:33:31;;;;;;;110.95;14.35;;;19.30;99.90;;;;;;5074254;28;20213;-77
2021/09/16 09:36:08;;;;;;;11.93;10.73;;;19.10;99.90;;;;;;5068957;28;20266;-78
2021/09/16 09:38:52;;;;;;;11.43;9.95;;;18.90;99.90;;;;;;5071405;28;20224;-76
2021/09/16 09:41:32;;;;;;;10.30;9.15;;;18.90;99.90;;;;;;5069144;28;20217;-76
2021/09/16 09:44:19;;;;;;;10.15;9.25;;;18.80;99.90;;;;;;5072306;28;20229;-76
2021/09/16 09:46:50;;;;;;;8.55;7.85;;;18.90;99.90;;;;;;5075182;28;20692;-76
2021/09/16 09:49:19;;;;;;;9.13;8.32;;;19.00;99.90;;;;;;5073630;28;20225;-76
2021/09/16 09:51:49;;;;;;;7.93;7.32;;;19.10;99.90;;;;;;5071713;28;20221;-75
2021/09/16 09:54:21;;;;;;;7.28;6.68;;;19.20;99.90;;;;;;5072988;28;20283;-75
2021/09/16 09:57:10;;;;;;;6.13;5.63;;;19.20;99.90;;;;;;5070358;28;20297;-77
2021/09/16 09:59:58;;;;;;;5.45;5.05;;;19.30;99.90;;;;;;5078810;28;20282;-77
2021/09/16 10:02:28;;;;;;;7.32;6.70;;;19.40;99.90;;;;;;5071079;28;20229;-76
2021/09/16 10:04:55;;;;;;;7.43;6.82;;;19.50;99.90;;;;;;5073610;28;20225;-76
2021/09/16 10:07:32;;;;;;;7.00;6.40;;;19.50;99.90;;;;;;5067918;28;20221;-76
2021/09/16 10:10:04;;;;;;;8.98;8.18;;;19.50;99.90;;;;;;5072037;28;20225;-78
2021/09/16 10:12:31;;;;;;;8.43;7.63;;;19.50;99.90;;;;;;5077181;28;20259;-76
2021/09/16 10:14:58;;;;;;;8.00;7.28;;;19.50;99.90;;;;;;5066992;28;20229;-77
2021/09/16 10:17:25;;;;;;;7.13;6.53;;;19.60;99.90;;;;;;5071902;28;20209;-76
2021/09/16 10:19:53;;;;;;;6.85;6.32;;;19.60;99.90;;;;;;5071683;28;20218;-77
2021/09/16 10:22:20;;;;;;;7.38;6.68;;;19.60;99.90;;;;;;5073207;28;20213;-77
2021/09/16 10:24:48;;;;;;;8.05;7.45;;;19.40;99.90;;;;;;5070984;28;20716;-75
2021/09/16 10:27:38;;;;;;;9.10;8.13;;;19.40;99.90;;;;;;5075195;28;20228;-76
2021/09/16 10:30:35;;;;;;;8.07;7.38;;;19.30;99.90;;;;;;5066469;28;20226;-77
2021/09/16 10:33:21;;;;;;;7.82;7.18;;;19.30;99.90;;;;;;5074560;28;20256;-76
2021/09/16 10:36:06;;;;;;;7.32;6.72;;;19.20;99.90;;;;;;5070722;28;20225;-76
2021/09/16 10:38:38;;;;;;;14.45;6.63;;;19.30;99.90;;;;;;5071266;28;20221;-76
2021/09/16 10:41:22;;;;;;;51.58;8.88;;;19.30;99.90;;;;;;5078072;28;20229;-76
2021/09/16 10:44:14;;;;;;;5.80;5.40;;;19.30;99.90;;;;;;5073036;28;20225;-76
2021/09/16 10:46:43;;;;;;;20.27;5.88;;;19.20;99.90;;;;;;5068948;28;20247;-76
2021/09/16 10:49:34;;;;;;;11.35;5.82;;;19.10;99.90;;;;;;5066651;28;20329;-77
2021/09/16 10:52:17;;;;;;;4.72;4.43;;;19.00;99.90;;;;;;5063871;28;20985;-77
2021/09/16 10:54:48;;;;;;;6.28;5.78;;;18.90;99.90;;;;;;5070618;28;20249;-75
2021/09/16 10:57:16;;;;;;;5.20;4.80;;;19.00;99.90;;;;;;5073801;28;20222;-76
2021/09/16 11:00:10;;;;;;;5.60;4.72;;;19.10;99.90;;;;;;5074632;28;20218;-76
2021/09/16 11:03:11;;;;;;;6.18;5.68;;;19.20;99.90;;;;;;5062783;28;20284;-75
2021/09/16 11:05:58;;;;;;;6.78;6.18;;;19.20;99.90;;;;;;5072150;28;20360;-75
2021/09/16 11:08:58;;;;;;;6.97;6.35;;;19.20;99.90;;;;;;5032459;28;20654;-76
2021/09/16 11:11:46;;;;;;;6.72;6.13;;;19.10;99.90;;;;;;5075587;28;20764;-78
2021/09/16 11:14:29;;;;;;;6.78;6.07;;;19.00;99.90;;;;;;5077338;28;20221;-74
2021/09/16 11:16:58;;;;;;;6.85;6.25;;;19.00;99.90;;;;;;5071771;28;21240;-74
2021/09/16 11:19:26;;;;;;;5.20;4.80;;;19.00;99.90;;;;;;5072605;28;20225;-76
2021/09/16 11:22:06;;;;;;;6.00;5.40;;;19.10;99.90;;;;;;5074543;28;20221;-75
2021/09/16 11:24:38;;;;;;;5.20;4.80;;;19.30;99.90;;;;;;5067627;28;20312;-75
2021/09/16 11:27:06;;;;;;;6.32;5.78;;;19.40;99.90;;;;;;5068631;28;20232;-75
2021/09/16 11:29:44;;;;;;;9.63;8.38;;;19.50;99.90;;;;;;5069500;28;20513;-75
2021/09/16 11:32:13;;;;;;;8.20;7.45;;;19.50;99.90;;;;;;5049316;28;20709;-75
2021/09/16 11:34:54;;;;;;;16.00;9.35;;;19.30;99.90;;;;;;5075311;28;20218;-75
2021/09/16 11:37:29;;;;;;;329.60;14.52;;;19.10;99.90;;;;;;5067307;28;22074;-75
2021/09/16 11:40:02;;;;;;;155.00;7.35;;;18.90;99.90;;;;;;5069353;28;20233;-74
2021/09/16 11:42:31;;;;;;;59.25;4.45;;;18.80;99.90;;;;;;5073846;28;20222;-75
2021/09/16 11:45:11;;;;;;;53.15;3.58;;;18.70;99.90;;;;;;5070886;28;20229;-75
2021/09/16 11:47:59;;;;;;;1.60;1.50;;;18.60;99.90;;;;;;5072567;28;20812;-76
2021/09/16 11:50:32;;;;;;;26.23;2.15;;;18.60;99.90;;;;;;5071920;28;20221;-75
2021/09/16 11:53:02;;;;;;;225.98;7.28;;;18.60;99.90;;;;;;5075434;28;20250;-75
2021/09/16 11:55:31;;;;;;;4.63;3.53;;;18.70;99.90;;;;;;5056540;28;20728;-75
2021/09/16 11:58:04;;;;;;;7.75;3.67;;;18.70;99.90;;;;;;5065962;28;20229;-76
2021/09/16 12:00:36;;;;;;;89.35;8.65;;;18.60;99.90;;;;;;5070334;28;20229;-76
2021/09/16 12:03:05;;;;;;;5.53;5.13;;;18.70;99.90;;;;;;5068008;28;20759;-76
2021/09/16 12:05:40;;;;;;;6.15;5.65;;;18.70;99.90;;;;;;5069690;28;20340;-75
2021/09/16 12:08:09;;;;;;;78.10;9.52;;;18.80;99.90;;;;;;5041998;28;20235;-77
2021/09/16 12:10:45;;;;;;;8.95;8.15;;;18.80;99.90;;;;;;5072578;28;20222;-76
2021/09/16 12:13:15;;;;;;;102.07;13.05;;;18.80;99.90;;;;;;5070944;28;20228;-76
2021/09/16 12:15:43;;;;;;;9.13;8.18;;;18.70;99.90;;;;;;5070868;28;20233;-76
2021/09/16 12:18:12;;;;;;;7.90;7.13;;;18.80;99.90;;;;;;5071549;28;20288;-76
2021/09/16 12:20:41;;;;;;;9.55;7.88;;;18.90;99.90;;;;;;5069820;28;20229;-76
2021/09/16 12:23:12;;;;;;;7.88;7.18;;;19.00;99.90;;;;;;5069599;28;20308;-77
2021/09/16 12:25:54;;;;;;;6.55;5.90;;;19.20;99.90;;;;;;5074619;28;20245;-76
2021/09/16 12:28:22;;;;;;;6.43;5.78;;;19.40;99.90;;;;;;5077150;28;20217;-76
2021/09/16 12:30:49;;;;;;;6.57;5.72;;;19.50;99.90;;;;;;5067943;28;20240;-76
2021/09/16 12:33:33;;;;;;;6.30;5.70;;;19.70;99.90;;;;;;5069664;28;20225;-77
2021/09/16 12:36:24;;;;;;;5.95;5.40;;;19.70;99.90;;;;;;5070014;28;20229;-75
2021/09/16 12:38:55;;;;;;;16.30;5.80;;;19.90;99.90;;;;;;5066354;28;20225;-76
2021/09/16 12:41:28;;;;;;;16.02;6.45;;;20.00;99.90;;;;;;5072074;28;20237;-77
2021/09/16 12:44:13;;;;;;;13.93;6.05;;;20.10;99.90;;;;;;5066606;28;20743;-75
2021/09/16 12:46:46;;;;;;;52.50;7.43;;;20.10;99.90;;;;;;5069469;28;20453;-76
2021/09/16 12:49:49;;;;;;;6.53;5.85;;;20.10;99.90;;;;;;5067302;28;20278;-76
2021/09/16 12:52:23;;;;;;;15.68;6.40;;;19.90;99.90;;;;;;5007433;28;20288;-75
2021/09/16 12:54:52;;;;;;;6.47;5.93;;;19.70;99.90;;;;;;5066475;28;20334;-76
2021/09/16 12:57:21;;;;;;;6.05;5.45;;;19.80;99.90;;;;;;5063493;28;20234;-75